TimeCDT,TemperatureF,Dew PointF,Humidity,Sea Level PressureIn,VisibilityMPH,Wind Direction,Wind SpeedMPH,Gust SpeedMPH,PrecipitationIn,Events,Conditions,WindDirDegrees,DateUTC
12:53 AM,57.9,55.0,90,29.93,10.0,Calm,Calm,-,N/A,,Partly Cloudy,0,2012-03-25 05:53:00
1:53 AM,55.0,53.1,93,29.93,9.0,West,5.8,-,N/A,,Clear,260,2012-03-25 06:53:00
3:53 AM,54.0,52.0,93,29.94,10.0,WSW,4.6,-,N/A,,Clear,250,2012-03-25 08:53:00
6:53 AM,53.1,52.0,96,29.98,4.0,West,5.8,-,N/A,,Clear,280,2012-03-25 11:53:00
7:53 AM,57.0,55.0,93,30.00,3.0,WNW,4.6,-,N/A,,Clear,300,2012-03-25 12:53:00
8:04 AM,57.2,55.4,94,30.01,4.0,WNW,4.6,-,N/A,,Partly Cloudy,290,2012-03-25 13:04:00
8:35 AM,59.0,57.2,94,30.02,5.0,WNW,4.6,-,N/A,,Mostly Cloudy,290,2012-03-25 13:35:00
8:53 AM,61.0,57.0,87,30.02,5.0,NNW,5.8,-,N/A,,Mostly Cloudy,330,2012-03-25 13:53:00
9:19 AM,62.6,57.2,82,30.03,6.0,North,9.2,-,N/A,,Haze,350,2012-03-25 14:19:00
9:53 AM,62.1,57.0,84,30.04,6.0,NNW,6.9,-,N/A,,Haze,340,2012-03-25 14:53:00
10:08 AM,62.6,57.2,82,30.04,6.0,NNW,8.1,-,N/A,,Haze,340,2012-03-25 15:08:00
10:16 AM,62.6,57.2,82,30.05,7.0,NNW,8.1,-,N/A,,Overcast,340,2012-03-25 15:16:00
10:53 AM,63.0,57.0,81,30.04,7.0,North,8.1,-,N/A,,Overcast,350,2012-03-25 15:53:00
11:53 AM,64.0,57.0,78,30.05,7.0,NNW,5.8,-,N/A,,Overcast,340,2012-03-25 16:53:00
12:53 PM,64.9,57.0,75,30.04,8.0,North,4.6,-,N/A,,Overcast,360,2012-03-25 17:53:00
1:53 PM,66.9,57.0,70,30.03,9.0,ENE,4.6,-,N/A,,Overcast,60,2012-03-25 18:53:00
2:00 PM,66.2,57.2,73,30.03,9.0,East,6.9,-,N/A,,Overcast,80,2012-03-25 19:00:00
2:21 PM,69.8,55.4,60,30.02,10.0,North,11.5,-,N/A,,Overcast,350,2012-03-25 19:21:00
2:53 PM,69.1,55.0,61,30.02,10.0,North,12.7,-,N/A,,Overcast,350,2012-03-25 19:53:00
3:53 PM,70.0,55.0,59,30.01,10.0,NNE,8.1,-,N/A,,Mostly Cloudy,20,2012-03-25 20:53:00
4:53 PM,71.1,55.9,59,30.02,10.0,North,10.4,-,N/A,,Overcast,350,2012-03-25 21:53:00
5:53 PM,70.0,54.0,57,30.02,10.0,North,9.2,-,N/A,,Overcast,10,2012-03-25 22:53:00
6:53 PM,66.9,55.9,68,30.03,10.0,North,5.8,-,N/A,,Scattered Clouds,360,2012-03-25 23:53:00
7:53 PM,66.0,54.0,65,30.04,10.0,NNW,3.5,-,N/A,,Clear,340,2012-03-26 00:53:00
8:53 PM,57.9,54.0,87,30.05,10.0,Calm,Calm,-,N/A,,Clear,0,2012-03-26 01:53:00
9:53 PM,57.0,53.1,87,30.06,10.0,Calm,Calm,-,N/A,,Clear,0,2012-03-26 02:53:00
10:53 PM,54.0,52.0,93,30.06,9.0,SW,3.5,-,N/A,,Clear,230,2012-03-26 03:53:00
11:53 PM,53.1,51.1,93,30.06,9.0,Calm,Calm,-,N/A,,Clear,0,2012-03-26 04:53:00